createdAt,value
2022-09-01T00:00:10.018Z,9.13
2022-09-01T00:00:30.148Z,9.16
2022-09-01T00:00:50.165Z,9.14
2022-09-01T00:01:10.212Z,9.14
2022-09-01T00:01:30.251Z,9.14
2022-09-01T00:01:50.333Z,9.13
2022-09-01T00:02:10.445Z,9.1
2022-09-01T00:02:30.577Z,9.11
2022-09-01T00:02:50.605Z,9.13
2022-09-01T00:03:10.558Z,9.1
2022-09-01T00:03:30.734Z,9.11
2022-09-01T00:03:50.689Z,9.09
2022-09-01T00:04:10.795Z,9.07
2022-09-01T00:04:30.863Z,9.07
2022-09-01T00:04:50.866Z,9.07
2022-09-01T00:05:10.927Z,9.06
2022-09-01T00:05:30.978Z,9.06
2022-09-01T00:05:51.029Z,9.07
2022-09-01T00:06:11.111Z,9.04
2022-09-01T00:06:31.163Z,9.02
2022-09-01T00:06:51.233Z,9.04
2022-09-01T00:07:11.309Z,9.03
2022-09-01T00:07:31.361Z,9
2022-09-01T00:07:51.460Z,9
2022-09-01T00:08:11.465Z,8.99
2022-09-01T00:08:31.599Z,9
2022-09-01T00:08:51.592Z,9.02
2022-09-01T00:09:11.655Z,8.99
2022-09-01T00:09:31.704Z,9
2022-09-01T00:09:51.782Z,8.99
2022-09-01T00:10:11.838Z,8.98
2022-09-01T00:10:31.883Z,8.96
2022-09-01T00:10:51.974Z,8.98
2022-09-01T00:11:12.004Z,8.98
2022-09-01T00:11:32.067Z,8.98
2022-09-01T00:11:52.143Z,8.98
2022-09-01T00:12:12.184Z,8.99
2022-09-01T00:12:32.262Z,8.98
2022-09-01T00:12:52.319Z,8.98
2022-09-01T00:13:12.355Z,8.96
2022-09-01T00:13:32.522Z,8.99
2022-09-01T00:13:52.437Z,8.98
2022-09-01T00:14:29.557Z,8.94
2022-09-01T00:14:32.580Z,8.96
2022-09-01T00:14:52.601Z,8.99
2022-09-01T00:15:12.678Z,8.98
2022-09-01T00:15:32.784Z,8.96
2022-09-01T00:15:52.877Z,8.96
2022-09-01T00:16:12.926Z,8.98
2022-09-01T00:16:32.940Z,8.93
2022-09-01T00:16:53.008Z,8.93
2022-09-01T00:17:13.087Z,8.92
2022-09-01T00:17:33.137Z,8.89
2022-09-01T00:17:53.202Z,8.92
2022-09-01T00:18:13.248Z,8.9
2022-09-01T00:18:33.398Z,8.9
2022-09-01T00:18:53.378Z,8.9
2022-09-01T00:19:13.443Z,8.87
2022-09-01T00:19:33.522Z,8.9
2022-09-01T00:19:53.562Z,8.86
2022-09-01T00:20:18.230Z,8.87
2022-09-01T00:20:33.714Z,8.86
2022-09-01T00:20:53.798Z,8.84
2022-09-01T00:21:13.831Z,8.84
2022-09-01T00:21:33.884Z,8.84
2022-09-01T00:21:53.945Z,8.84
2022-09-01T00:22:13.996Z,8.83
2022-09-01T00:22:34.060Z,8.8
2022-09-01T00:22:54.142Z,8.79
2022-09-01T00:23:14.180Z,8.78
2022-09-01T00:23:34.333Z,8.78
2022-09-01T00:23:54.342Z,8.76
2022-09-01T00:24:14.390Z,8.82
2022-09-01T00:24:34.435Z,8.8
2022-09-01T00:24:54.502Z,8.82
2022-09-01T00:25:14.605Z,8.8
2022-09-01T00:25:34.666Z,8.83
2022-09-01T00:25:54.713Z,8.8
2022-09-01T00:26:14.769Z,8.78
2022-09-01T00:26:34.873Z,8.79
2022-09-01T00:26:54.891Z,8.76
2022-09-01T00:27:14.947Z,8.76
2022-09-01T00:27:34.994Z,8.75
2022-09-01T00:27:55.098Z,8.76
2022-09-01T00:28:15.139Z,8.75
2022-09-01T00:28:35.280Z,8.75
2022-09-01T00:28:55.203Z,8.73
2022-09-01T00:29:15.264Z,8.76
2022-09-01T00:29:35.304Z,8.76
2022-09-01T00:29:55.364Z,8.75
2022-09-01T00:30:15.448Z,8.75
2022-09-01T00:30:35.526Z,8.75
2022-09-01T00:30:55.620Z,8.75
2022-09-01T00:31:15.662Z,8.73
2022-09-01T00:31:35.691Z,8.73
2022-09-01T00:31:55.736Z,8.73
2022-09-01T00:32:15.792Z,8.69
2022-09-01T00:32:35.872Z,8.71
2022-09-01T00:32:55.934Z,8.68
2022-09-01T00:33:15.967Z,8.69
2022-09-01T00:33:36.135Z,8.71
2022-09-01T00:33:56.113Z,8.73
2022-09-01T00:34:16.142Z,8.72
2022-09-01T00:34:36.205Z,8.72
2022-09-01T00:34:56.296Z,8.71
2022-09-01T00:35:16.343Z,8.69
2022-09-01T00:35:37.203Z,8.68
2022-09-01T00:35:56.492Z,8.66
2022-09-01T00:36:16.523Z,8.65
2022-09-01T00:36:36.597Z,8.63
2022-09-01T00:36:56.668Z,8.63
2022-09-01T00:37:16.698Z,8.62
2022-09-01T00:37:36.759Z,8.63
2022-09-01T00:37:56.857Z,8.62
2022-09-01T00:38:17.008Z,8.61
2022-09-01T00:38:37.011Z,8.59
2022-09-01T00:38:56.994Z,8.61
2022-09-01T00:39:17.089Z,8.59
2022-09-01T00:39:37.135Z,8.58
2022-09-01T00:39:57.162Z,8.58
2022-09-01T00:40:17.307Z,8.58
2022-09-01T00:40:37.346Z,8.58
2022-09-01T00:40:57.359Z,8.56
2022-09-01T00:41:17.424Z,8.51
2022-09-01T00:41:37.485Z,8.55
2022-09-01T00:41:57.580Z,8.56
2022-09-01T00:42:17.608Z,8.55
2022-09-01T00:42:37.670Z,8.55
2022-09-01T00:42:57.748Z,8.55
2022-09-01T00:43:17.810Z,8.55
2022-09-01T00:43:37.962Z,8.54
2022-09-01T00:43:57.910Z,8.54
2022-09-01T00:44:17.962Z,8.52
2022-09-01T00:44:38.019Z,8.49
2022-09-01T00:44:58.092Z,8.48
2022-09-01T00:45:18.147Z,8.49
2022-09-01T00:45:38.203Z,8.48
2022-09-01T00:45:58.365Z,8.51
2022-09-01T00:46:18.539Z,8.52
2022-09-01T00:46:47.563Z,8.49
2022-09-01T00:46:58.592Z,8.49
2022-09-01T00:47:18.543Z,8.47
2022-09-01T00:47:38.588Z,8.48
2022-09-01T00:47:58.657Z,8.47
2022-09-01T00:48:18.874Z,8.42
2022-09-01T00:48:38.845Z,8.42
2022-09-01T00:48:58.799Z,8.42
2022-09-01T00:49:18.877Z,8.4
2022-09-01T00:49:38.934Z,8.38
2022-09-01T00:49:58.994Z,8.38
2022-09-01T00:50:19.087Z,8.41
2022-09-01T00:50:39.119Z,8.42
2022-09-01T00:50:59.164Z,8.42
2022-09-01T00:51:19.218Z,8.4
2022-09-01T00:51:39.297Z,8.4
2022-09-01T00:51:59.403Z,8.38
2022-09-01T00:52:19.410Z,8.41
2022-09-01T00:52:39.463Z,8.38
2022-09-01T00:52:59.533Z,8.35
2022-09-01T00:53:19.594Z,8.35
2022-09-01T00:53:39.762Z,8.35
2022-09-01T00:53:59.711Z,8.37
2022-09-01T00:54:19.773Z,8.35
2022-09-01T00:54:39.834Z,8.35
2022-09-01T00:54:59.896Z,8.35
2022-09-01T00:55:20.000Z,8.35
2022-09-01T00:55:40.012Z,8.34
2022-09-01T00:56:00.073Z,8.37
2022-09-01T00:56:20.127Z,8.34
2022-09-01T00:56:40.201Z,8.38
2022-09-01T00:57:00.263Z,8.37
2022-09-01T00:57:20.343Z,8.35
2022-09-01T00:57:40.407Z,8.37
2022-09-01T00:58:00.457Z,8.34
2022-09-01T00:58:20.548Z,8.33
2022-09-01T00:58:40.673Z,8.34
2022-09-01T00:59:00.621Z,8.35
2022-09-01T00:59:20.676Z,8.37
2022-09-01T00:59:40.725Z,8.38
2022-09-01T01:00:00.797Z,8.4
2022-09-01T01:00:20.874Z,8.41
2022-09-01T01:00:40.916Z,8.4
2022-09-01T01:01:01.042Z,8.4
2022-09-01T01:01:21.170Z,8.41
2022-09-01T01:01:41.115Z,8.41
2022-09-01T01:02:01.154Z,8.38
2022-09-01T01:02:21.378Z,8.37
2022-09-01T01:02:41.334Z,8.38
2022-09-01T01:03:01.421Z,8.37
2022-09-01T01:03:21.405Z,8.37
2022-09-01T01:03:41.579Z,8.37
2022-09-01T01:04:01.517Z,8.38
2022-09-01T01:04:21.579Z,8.37
2022-09-01T01:04:41.643Z,8.34
2022-09-01T01:05:01.700Z,8.35
2022-09-01T01:05:21.780Z,8.34
2022-09-01T01:05:41.826Z,8.33
2022-09-01T01:06:01.887Z,8.33
2022-09-01T01:06:21.939Z,8.31
2022-09-01T01:06:41.991Z,8.34
2022-09-01T01:07:02.061Z,8.3
2022-09-01T01:07:22.110Z,8.31
2022-09-01T01:07:42.185Z,8.3
2022-09-01T01:08:02.223Z,8.33
2022-09-01T01:08:22.409Z,8.28
2022-09-01T01:08:42.467Z,8.27
2022-09-01T01:09:02.429Z,8.28
2022-09-01T01:09:22.474Z,8.28
2022-09-01T01:09:42.538Z,8.28
2022-09-01T01:10:02.615Z,8.31
2022-09-01T01:10:22.674Z,8.3
2022-09-01T01:10:42.708Z,8.31
2022-09-01T01:11:02.798Z,8.3
2022-09-01T01:11:22.865Z,8.27
2022-09-01T01:11:42.921Z,8.27
2022-09-01T01:12:03.010Z,8.25
2022-09-01T01:12:23.004Z,8.27
2022-09-01T01:12:43.101Z,8.24
2022-09-01T01:13:03.141Z,8.21
2022-09-01T01:13:23.190Z,8.21
2022-09-01T01:13:43.376Z,8.2
2022-09-01T01:14:03.347Z,8.15
2022-09-01T01:14:23.361Z,8.14
2022-09-01T01:14:45.775Z,8.14
2022-09-01T01:15:03.497Z,8.15
2022-09-01T01:15:23.561Z,8.13
2022-09-01T01:15:43.612Z,8.14
2022-09-01T01:16:03.710Z,8.15
2022-09-01T01:16:23.920Z,8.14
2022-09-01T01:16:43.913Z,8.13
2022-09-01T01:17:03.913Z,8.13
2022-09-01T01:17:23.918Z,8.14
2022-09-01T01:17:43.979Z,8.15
2022-09-01T01:18:04.030Z,8.15
2022-09-01T01:18:24.228Z,8.15
2022-09-01T01:18:44.225Z,8.17
2022-09-01T01:19:04.211Z,8.18
2022-09-01T01:19:24.284Z,8.17
2022-09-01T01:19:44.341Z,8.13
2022-09-01T01:20:04.397Z,8.11
2022-09-01T01:20:24.458Z,8.11
2022-09-01T01:20:44.510Z,8.1
2022-09-01T01:21:04.598Z,8.1
2022-09-01T01:21:24.650Z,8.1
2022-09-01T01:21:44.762Z,8.11
2022-09-01T01:22:04.813Z,8.1
2022-09-01T01:22:24.826Z,8.07
2022-09-01T01:22:44.852Z,8.07
2022-09-01T01:23:04.955Z,8.05
2022-09-01T01:23:25.006Z,8.08
2022-09-01T01:23:45.146Z,8.07
2022-09-01T01:24:05.117Z,8.04
2022-09-01T01:24:25.209Z,8.05
2022-09-01T01:24:45.241Z,8.03
2022-09-01T01:25:05.346Z,8.03
2022-09-01T01:25:25.370Z,8.01
2022-09-01T01:25:45.426Z,7.97
2022-09-01T01:26:05.494Z,7.98
2022-09-01T01:26:25.561Z,7.96
2022-09-01T01:26:45.612Z,7.96
2022-09-01T01:27:05.661Z,7.93
2022-09-01T01:27:25.736Z,7.92
2022-09-01T01:27:45.793Z,7.94
2022-09-01T01:28:05.844Z,7.93
2022-09-01T01:28:25.899Z,7.94
2022-09-01T01:28:46.033Z,7.89
2022-09-01T01:29:06.022Z,7.92
2022-09-01T01:29:26.074Z,7.92
2022-09-01T01:29:46.142Z,7.94
2022-09-01T01:30:06.221Z,7.92
2022-09-01T01:30:26.276Z,7.92
2022-09-01T01:30:46.377Z,7.92
2022-09-01T01:31:06.425Z,7.9
2022-09-01T01:31:26.470Z,7.92
2022-09-01T01:31:46.499Z,7.93
2022-09-01T01:32:06.601Z,7.93
2022-09-01T01:32:26.617Z,7.93
2022-09-01T01:32:46.712Z,7.92
2022-09-01T01:33:06.745Z,7.9
2022-09-01T01:33:26.803Z,7.9
2022-09-01T01:33:46.982Z,7.9
2022-09-01T01:34:06.919Z,7.9
2022-09-01T01:34:26.981Z,7.87
2022-09-01T01:34:48.759Z,7.87
2022-09-01T01:35:07.109Z,7.87
2022-09-01T01:35:27.144Z,7.82
2022-09-01T01:35:47.245Z,7.83
2022-09-01T01:36:07.308Z,7.8
2022-09-01T01:36:27.350Z,7.79
2022-09-01T01:36:47.414Z,7.79
2022-09-01T01:37:07.465Z,7.79
2022-09-01T01:37:27.510Z,7.79
2022-09-01T01:37:47.588Z,7.79
2022-09-01T01:38:07.633Z,7.77
2022-09-01T01:38:27.708Z,7.77
2022-09-01T01:38:47.868Z,7.76
2022-09-01T01:39:07.853Z,7.76
2022-09-01T01:39:27.882Z,7.77
2022-09-01T01:39:47.938Z,7.79
2022-09-01T01:40:08.095Z,7.77
2022-09-01T01:40:28.152Z,7.77
2022-09-01T01:40:48.192Z,7.76
2022-09-01T01:41:08.195Z,7.76
2022-09-01T01:41:28.291Z,7.77
2022-09-01T01:41:48.295Z,7.79
2022-09-01T01:42:08.369Z,7.75
2022-09-01T01:42:28.429Z,7.77
2022-09-01T01:42:48.494Z,7.75
2022-09-01T01:43:08.534Z,7.76
2022-09-01T01:43:28.604Z,7.73
2022-09-01T01:43:48.754Z,7.75
2022-09-01T01:44:08.717Z,7.73
2022-09-01T01:44:28.793Z,7.72
2022-09-01T01:44:48.832Z,7.75
2022-09-01T01:45:08.922Z,7.75
2022-09-01T01:45:28.995Z,7.73
2022-09-01T01:45:49.112Z,7.73
2022-09-01T01:46:09.203Z,7.72
2022-09-01T01:46:29.192Z,7.72
2022-09-01T01:46:49.215Z,7.7
2022-09-01T01:47:09.302Z,7.7
2022-09-01T01:47:29.311Z,7.75
2022-09-01T01:47:49.378Z,7.75
2022-09-01T01:48:09.450Z,7.76
2022-09-01T01:48:29.526Z,7.75
2022-09-01T01:48:49.664Z,7.72
2022-09-01T01:49:09.636Z,7.7
2022-09-01T01:49:29.680Z,7.67
2022-09-01T01:49:49.753Z,7.67
2022-09-01T01:50:09.812Z,7.67
2022-09-01T01:50:29.864Z,7.65
2022-09-01T01:50:49.928Z,7.67
2022-09-01T01:51:10.000Z,7.66
2022-09-01T01:51:30.036Z,7.69
2022-09-01T01:51:50.141Z,7.69
2022-09-01T01:52:10.176Z,7.66
2022-09-01T01:52:30.220Z,7.7
2022-09-01T01:52:53.167Z,7.7
2022-09-01T01:53:11.469Z,7.72
2022-09-01T01:53:30.399Z,7.7
2022-09-01T01:53:50.562Z,7.67
2022-09-01T01:54:10.543Z,7.67
2022-09-01T01:54:30.593Z,7.65
2022-09-01T01:54:50.654Z,7.66
2022-09-01T01:55:10.708Z,7.66
2022-09-01T01:55:30.772Z,7.67
2022-09-01T01:55:50.844Z,7.67
2022-09-01T01:56:10.936Z,7.69
2022-09-01T01:56:30.956Z,7.67
2022-09-01T01:56:50.999Z,7.67
2022-09-01T01:57:11.080Z,7.7
2022-09-01T01:57:31.143Z,7.69
2022-09-01T01:57:51.202Z,7.7
2022-09-01T01:58:11.252Z,7.67
2022-09-01T01:58:31.307Z,7.66
2022-09-01T01:58:51.452Z,7.66
2022-09-01T01:59:11.432Z,7.7
2022-09-01T01:59:31.495Z,7.69
2022-09-01T01:59:51.533Z,7.67
2022-09-01T02:00:11.631Z,7.66
2022-09-01T02:00:31.665Z,7.66
2022-09-01T02:00:51.725Z,7.62
2022-09-01T02:01:11.952Z,7.61
2022-09-01T02:01:31.890Z,7.61
2022-09-01T02:01:51.993Z,7.61
2022-09-01T02:02:11.982Z,7.61
2022-09-01T02:02:32.111Z,7.62
2022-09-01T02:02:52.155Z,7.56
2022-09-01T02:03:12.154Z,7.56
2022-09-01T02:03:32.217Z,7.59
2022-09-01T02:03:52.341Z,7.61
2022-09-01T02:04:12.336Z,7.58
2022-09-01T02:04:32.393Z,7.58
2022-09-01T02:04:52.472Z,7.58
2022-09-01T02:05:12.496Z,7.56
2022-09-01T02:05:32.570Z,7.55
2022-09-01T02:05:52.636Z,7.56
2022-09-01T02:06:12.713Z,7.55
2022-09-01T02:06:32.750Z,7.55
2022-09-01T02:06:52.816Z,7.52
2022-09-01T02:07:12.864Z,7.51
2022-09-01T02:07:33.018Z,7.52
2022-09-01T02:07:52.979Z,7.49
2022-09-01T02:08:13.127Z,7.54
2022-09-01T02:08:33.150Z,7.51
2022-09-01T02:08:53.264Z,7.46
2022-09-01T02:09:13.240Z,7.46
2022-09-01T02:09:33.254Z,7.45
2022-09-01T02:09:53.287Z,7.45
2022-09-01T02:10:13.316Z,7.42
2022-09-01T02:10:33.320Z,7.44
2022-09-01T02:10:53.367Z,7.44
2022-09-01T02:11:13.388Z,7.46
2022-09-01T02:11:33.413Z,7.48
2022-09-01T02:11:53.442Z,7.48
2022-09-01T02:12:14.964Z,7.49
2022-09-01T02:12:33.481Z,7.51
2022-09-01T02:12:53.501Z,7.51
2022-09-01T02:13:13.596Z,7.49
2022-09-01T02:13:33.591Z,7.48
2022-09-01T02:13:53.674Z,7.45
2022-09-01T02:14:13.751Z,7.45
2022-09-01T02:14:33.669Z,7.44
2022-09-01T02:14:53.703Z,7.41
2022-09-01T02:15:13.714Z,7.39
2022-09-01T02:15:33.749Z,7.39
2022-09-01T02:15:53.798Z,7.38
2022-09-01T02:16:13.846Z,7.35
2022-09-01T02:16:33.917Z,7.35
2022-09-01T02:16:53.872Z,7.36
2022-09-01T02:17:13.860Z,7.35
2022-09-01T02:17:33.928Z,7.35
2022-09-01T02:17:53.970Z,7.34
2022-09-01T02:18:14.036Z,7.35
2022-09-01T02:18:34.103Z,7.36
2022-09-01T02:18:54.257Z,7.36
2022-09-01T02:19:14.242Z,7.35
2022-09-01T02:19:34.305Z,7.34
2022-09-01T02:19:54.366Z,7.32
2022-09-01T02:20:14.416Z,7.35
2022-09-01T02:20:34.489Z,7.35
2022-09-01T02:20:54.557Z,7.32
2022-09-01T02:21:18.325Z,7.32
2022-09-01T02:21:34.681Z,7.31
2022-09-01T02:21:54.776Z,7.31
2022-09-01T02:22:14.872Z,7.29
2022-09-01T02:22:34.885Z,7.31
2022-09-01T02:22:54.952Z,7.25
2022-09-01T02:23:15.007Z,7.24
2022-09-01T02:23:35.076Z,7.24
2022-09-01T02:23:55.248Z,7.22
2022-09-01T02:24:15.202Z,7.22
2022-09-01T02:24:35.271Z,7.24
2022-09-01T02:24:55.346Z,7.25
2022-09-01T02:25:15.395Z,7.25
2022-09-01T02:25:35.438Z,7.32
2022-09-01T02:26:14.978Z,7.28
2022-09-01T02:26:17.299Z,7.31
2022-09-01T02:26:35.635Z,7.31
2022-09-01T02:26:55.718Z,7.32
2022-09-01T02:27:15.757Z,7.31
2022-09-01T02:27:35.835Z,7.28
2022-09-01T02:27:55.878Z,7.28
2022-09-01T02:28:15.991Z,7.31
2022-09-01T02:28:36.055Z,7.31
2022-09-01T02:28:56.302Z,7.29
2022-09-01T02:29:16.147Z,7.28
2022-09-01T02:29:40.239Z,7.34
2022-09-01T02:29:56.273Z,7.34
2022-09-01T02:30:16.342Z,7.32
2022-09-01T02:30:36.423Z,7.31
2022-09-01T02:30:56.634Z,7.31
2022-09-01T02:31:16.681Z,7.34
2022-09-01T02:31:36.597Z,7.35
2022-09-01T02:31:56.661Z,7.32
2022-09-01T02:32:16.726Z,7.32
2022-09-01T02:32:36.785Z,7.31
2022-09-01T02:32:56.819Z,7.29
2022-09-01T02:33:16.910Z,7.31
2022-09-01T02:33:37.003Z,7.29
2022-09-01T02:33:57.118Z,7.29
2022-09-01T02:34:17.102Z,7.29
2022-09-01T02:34:37.155Z,7.28
2022-09-01T02:34:57.219Z,7.27
2022-09-01T02:35:17.298Z,7.27
2022-09-01T02:35:37.362Z,7.27
2022-09-01T02:35:57.427Z,7.28
2022-09-01T02:36:17.485Z,7.28
2022-09-01T02:36:37.545Z,7.28
2022-09-01T02:36:57.597Z,7.24
2022-09-01T02:37:17.698Z,7.24
2022-09-01T02:37:37.777Z,7.22
2022-09-01T02:37:57.841Z,7.22
2022-09-01T02:38:18.192Z,7.21
2022-09-01T02:38:38.868Z,7.19
2022-09-01T02:38:58.109Z,7.19
2022-09-01T02:39:18.112Z,7.19
2022-09-01T02:39:38.191Z,7.18
2022-09-01T02:39:58.219Z,7.19
2022-09-01T02:40:18.320Z,7.18
2022-09-01T02:40:38.381Z,7.19
2022-09-01T02:40:58.462Z,7.19
2022-09-01T02:41:18.453Z,7.18
2022-09-01T02:41:38.521Z,7.17
2022-09-01T02:41:58.614Z,7.21
2022-09-01T02:42:18.681Z,7.18
2022-09-01T02:42:38.719Z,7.15
2022-09-01T02:42:58.797Z,7.15
2022-09-01T02:43:18.866Z,7.15
2022-09-01T02:43:38.911Z,7.14
2022-09-01T02:43:59.041Z,7.12
2022-09-01T02:44:19.061Z,7.12
2022-09-01T02:44:41.442Z,7.14
2022-09-01T02:44:59.134Z,7.14
2022-09-01T02:45:19.125Z,7.11
2022-09-01T02:45:39.215Z,7.1
2022-09-01T02:45:59.268Z,7.08
2022-09-01T02:46:19.316Z,7.07
2022-09-01T02:46:39.244Z,7.06
2022-09-01T02:46:59.251Z,7.06
2022-09-01T02:47:19.318Z,7.03
2022-09-01T02:47:39.327Z,7.03
2022-09-01T02:47:59.350Z,7.01
2022-09-01T02:48:19.596Z,6.98
2022-09-01T02:48:39.385Z,7
2022-09-01T02:48:59.494Z,7
2022-09-01T02:49:19.451Z,6.98
2022-09-01T02:49:39.418Z,6.96
2022-09-01T02:49:59.467Z,6.96
2022-09-01T02:50:19.478Z,6.96
2022-09-01T02:50:39.525Z,6.96
2022-09-01T02:50:59.546Z,6.94
2022-09-01T02:51:19.576Z,6.97
2022-09-01T02:51:39.589Z,6.98
2022-09-01T02:51:59.674Z,6.98
2022-09-01T02:52:19.676Z,7.01
2022-09-01T02:52:39.710Z,7.04
2022-09-01T02:53:03.339Z,7.04
2022-09-01T02:53:19.727Z,7.06
2022-09-01T02:53:39.739Z,7.06
2022-09-01T02:53:59.810Z,7.04
2022-09-01T02:54:19.793Z,7.03
2022-09-01T02:54:39.801Z,7.01
2022-09-01T02:54:59.810Z,7
2022-09-01T02:55:19.859Z,7
2022-09-01T02:55:39.855Z,7
2022-09-01T02:55:59.900Z,6.97
2022-09-01T02:56:19.918Z,7
2022-09-01T02:56:39.951Z,6.98
2022-09-01T02:56:59.965Z,7.01
2022-09-01T02:57:20.002Z,6.98
2022-09-01T02:57:39.990Z,6.97
2022-09-01T02:58:00.041Z,6.98
2022-09-01T02:58:20.344Z,6.96
2022-09-01T02:58:40.169Z,6.97
2022-09-01T02:59:00.302Z,6.98
2022-09-01T02:59:20.287Z,6.96
2022-09-01T02:59:43.714Z,6.94
2022-09-01T03:00:00.401Z,6.94
2022-09-01T03:00:20.454Z,6.94
2022-09-01T03:00:40.527Z,6.96
2022-09-01T03:01:00.624Z,6.96
2022-09-01T03:01:20.715Z,6.96
2022-09-01T03:01:40.755Z,6.91
2022-09-01T03:02:00.764Z,6.97
2022-09-01T03:02:20.840Z,6.93
2022-09-01T03:02:40.879Z,6.93
2022-09-01T03:03:00.945Z,6.93
2022-09-01T03:03:21.015Z,6.93
2022-09-01T03:03:41.063Z,6.91
2022-09-01T03:04:01.221Z,6.9
2022-09-01T03:04:21.262Z,6.91
2022-09-01T03:04:41.275Z,6.88
2022-09-01T03:05:01.434Z,6.87
2022-09-01T03:05:21.358Z,6.9
2022-09-01T03:05:41.437Z,6.88
2022-09-01T03:06:01.521Z,6.88
2022-09-01T03:06:21.544Z,6.88
2022-09-01T03:06:41.604Z,6.88
2022-09-01T03:07:01.655Z,6.91
2022-09-01T03:07:21.706Z,6.88
2022-09-01T03:07:41.791Z,6.87
2022-09-01T03:08:01.838Z,6.91
2022-09-01T03:08:21.911Z,6.91
2022-09-01T03:08:41.967Z,6.93
2022-09-01T03:09:02.109Z,6.93
2022-09-01T03:09:22.087Z,6.96
2022-09-01T03:09:42.142Z,6.98
2022-09-01T03:10:02.224Z,6.97
2022-09-01T03:10:22.284Z,6.97
2022-09-01T03:10:42.338Z,6.96
2022-09-01T03:11:02.405Z,6.93
2022-09-01T03:11:22.481Z,6.91
2022-09-01T03:11:42.502Z,6.91
2022-09-01T03:12:02.559Z,6.9
2022-09-01T03:12:22.623Z,6.88
2022-09-01T03:12:42.688Z,6.87
2022-09-01T03:13:02.763Z,6.87
2022-09-01T03:13:22.828Z,6.88
2022-09-01T03:13:42.875Z,6.88
2022-09-01T03:14:03.016Z,6.86
2022-09-01T03:14:22.994Z,6.87
2022-09-01T03:14:43.048Z,6.86
2022-09-01T03:15:03.118Z,6.86
2022-09-01T03:15:23.168Z,6.86
2022-09-01T03:15:43.238Z,6.84
2022-09-01T03:16:03.371Z,6.84
2022-09-01T03:16:23.564Z,6.83
2022-09-01T03:16:43.445Z,6.84
2022-09-01T03:17:03.501Z,6.83
2022-09-01T03:17:23.527Z,6.84
2022-09-01T03:17:43.596Z,6.83
2022-09-01T03:18:03.649Z,6.82
2022-09-01T03:18:23.713Z,6.84
2022-09-01T03:18:43.789Z,6.82
2022-09-01T03:19:03.935Z,6.82
2022-09-01T03:19:23.890Z,6.82
2022-09-01T03:19:43.951Z,6.82
2022-09-01T03:20:04.019Z,6.79
2022-09-01T03:20:24.128Z,6.8
2022-09-01T03:20:44.156Z,6.8
2022-09-01T03:21:04.196Z,6.8
2022-09-01T03:21:24.254Z,6.8
2022-09-01T03:21:44.329Z,6.76
2022-09-01T03:22:04.382Z,6.76
2022-09-01T03:22:24.442Z,6.77
2022-09-01T03:22:44.494Z,6.76
2022-09-01T03:23:04.569Z,6.77
2022-09-01T03:23:24.617Z,6.76
2022-09-01T03:23:44.688Z,6.79
2022-09-01T03:24:04.839Z,6.77
2022-09-01T03:24:24.804Z,6.76
2022-09-01T03:24:44.845Z,6.75
2022-09-01T03:25:04.915Z,6.73
2022-09-01T03:25:24.987Z,6.75
2022-09-01T03:25:45.031Z,6.72
2022-09-01T03:26:05.101Z,6.73
2022-09-01T03:26:25.150Z,6.7
2022-09-01T03:26:45.228Z,6.7
2022-09-01T03:27:05.334Z,6.66
2022-09-01T03:27:25.320Z,6.63
2022-09-01T03:27:45.386Z,6.66
2022-09-01T03:28:05.423Z,6.66
2022-09-01T03:28:25.500Z,6.63
2022-09-01T03:28:45.566Z,6.69
2022-09-01T03:29:05.733Z,6.66
2022-09-01T03:29:25.703Z,6.65
2022-09-01T03:29:45.759Z,6.66
2022-09-01T03:30:05.828Z,6.63
2022-09-01T03:30:25.869Z,6.62
2022-09-01T03:30:45.946Z,6.63
2022-09-01T03:31:05.987Z,6.65
2022-09-01T03:31:26.033Z,6.62
2022-09-01T03:31:46.121Z,6.63
2022-09-01T03:32:06.224Z,6.63
2022-09-01T03:32:26.219Z,6.63
2022-09-01T03:32:46.277Z,6.6
2022-09-01T03:33:06.319Z,6.6
2022-09-01T03:33:26.408Z,6.62
2022-09-01T03:33:46.440Z,6.6
2022-09-01T03:34:06.614Z,6.63
2022-09-01T03:34:26.578Z,6.6
2022-09-01T03:34:46.669Z,6.62
2022-09-01T03:35:06.757Z,6.59
2022-09-01T03:35:26.780Z,6.57
2022-09-01T03:35:46.875Z,6.59
2022-09-01T03:36:10.557Z,6.6
2022-09-01T03:36:26.942Z,6.59
2022-09-01T03:36:47.018Z,6.57
2022-09-01T03:37:07.088Z,6.59
2022-09-01T03:37:27.157Z,6.57
2022-09-01T03:37:47.212Z,6.57
2022-09-01T03:38:07.284Z,6.59
2022-09-01T03:38:27.331Z,6.59
2022-09-01T03:38:47.393Z,6.57
2022-09-01T03:39:07.534Z,6.57
2022-09-01T03:39:27.538Z,6.6
2022-09-01T03:39:47.607Z,6.6
2022-09-01T03:40:07.756Z,6.59
2022-09-01T03:40:27.796Z,6.59
2022-09-01T03:40:47.844Z,6.59
2022-09-01T03:41:07.810Z,6.56
2022-09-01T03:41:27.870Z,6.57
2022-09-01T03:41:47.949Z,6.56
2022-09-01T03:42:08.000Z,6.57
2022-09-01T03:42:28.082Z,6.55
2022-09-01T03:42:48.116Z,6.52
2022-09-01T03:43:08.180Z,6.56
2022-09-01T03:43:34.435Z,6.53
2022-09-01T03:43:48.597Z,6.56
2022-09-01T03:44:08.425Z,6.55
2022-09-01T03:44:28.427Z,6.55
2022-09-01T03:44:48.472Z,6.55
2022-09-01T03:45:08.506Z,6.52
2022-09-01T03:45:28.608Z,6.52
2022-09-01T03:45:48.725Z,6.53
2022-09-01T03:46:08.788Z,6.52
2022-09-01T03:46:31.073Z,6.53
2022-09-01T03:46:48.832Z,6.53
2022-09-01T03:47:08.912Z,6.52
2022-09-01T03:47:28.965Z,6.5
2022-09-01T03:47:49.006Z,6.52
2022-09-01T03:48:09.077Z,6.5
2022-09-01T03:48:29.132Z,6.5
2022-09-01T03:48:49.190Z,6.5
2022-09-01T03:49:09.332Z,6.5
2022-09-01T03:49:29.309Z,6.48
2022-09-01T03:49:49.387Z,6.48
2022-09-01T03:50:09.416Z,6.49
2022-09-01T03:50:29.486Z,6.48
2022-09-01T03:50:49.563Z,6.49
2022-09-01T03:51:09.611Z,6.49
2022-09-01T03:51:29.681Z,6.5
2022-09-01T03:51:49.728Z,6.5
2022-09-01T03:52:09.801Z,6.5
2022-09-01T03:52:29.852Z,6.52
2022-09-01T03:52:49.940Z,6.49
2022-09-01T03:53:09.982Z,6.5
2022-09-01T03:53:30.023Z,6.49
2022-09-01T03:53:50.134Z,6.48
2022-09-01T03:54:10.268Z,6.49
2022-09-01T03:54:30.273Z,6.5
2022-09-01T03:54:50.272Z,6.52
2022-09-01T03:55:10.329Z,6.5
2022-09-01T03:55:30.382Z,6.52
2022-09-01T03:55:50.449Z,6.52
2022-09-01T03:56:10.515Z,6.52
2022-09-01T03:56:30.571Z,6.53
2022-09-01T03:56:50.650Z,6.53
2022-09-01T03:57:10.724Z,6.53
2022-09-01T03:57:32.448Z,6.55
2022-09-01T03:57:50.825Z,6.55
2022-09-01T03:58:10.869Z,6.57
2022-09-01T03:58:30.921Z,6.56
2022-09-01T03:58:50.997Z,6.55
2022-09-01T03:59:11.136Z,6.53
2022-09-01T03:59:31.142Z,6.53
2022-09-01T03:59:51.179Z,6.55
2022-09-01T04:00:11.233Z,6.56
2022-09-01T04:00:31.305Z,6.52
2022-09-01T04:00:51.363Z,6.52
2022-09-01T04:01:13.598Z,6.52
2022-09-01T04:01:31.621Z,6.52
2022-09-01T04:01:51.589Z,6.5
2022-09-01T04:02:11.672Z,6.55
2022-09-01T04:02:31.758Z,6.52
2022-09-01T04:02:54.258Z,6.52
2022-09-01T04:03:11.781Z,6.55
2022-09-01T04:03:31.886Z,6.52
2022-09-01T04:03:51.891Z,6.53
2022-09-01T04:04:12.051Z,6.49
2022-09-01T04:04:32.024Z,6.5
2022-09-01T04:04:52.084Z,6.49
2022-09-01T04:05:12.160Z,6.52
2022-09-01T04:05:32.224Z,6.53
2022-09-01T04:05:52.249Z,6.52
2022-09-01T04:06:12.319Z,6.5
2022-09-01T04:06:32.381Z,6.49
2022-09-01T04:06:52.435Z,6.49
2022-09-01T04:07:15.546Z,6.48
2022-09-01T04:07:32.557Z,6.49
2022-09-01T04:07:52.617Z,6.45
2022-09-01T04:08:12.762Z,6.43
2022-09-01T04:08:33.228Z,6.46
2022-09-01T04:08:52.825Z,6.46
2022-09-01T04:09:12.953Z,6.45
2022-09-01T04:09:32.912Z,6.43
2022-09-01T04:09:52.965Z,6.45
2022-09-01T04:10:13.032Z,6.45
2022-09-01T04:10:33.089Z,6.48
2022-09-01T04:10:54.408Z,6.46
2022-09-01T04:11:13.231Z,6.46
2022-09-01T04:11:33.286Z,6.46
2022-09-01T04:11:53.314Z,6.48
2022-09-01T04:12:13.399Z,6.48
2022-09-01T04:12:33.461Z,6.5
2022-09-01T04:12:53.581Z,6.48
2022-09-01T04:13:13.588Z,6.49
2022-09-01T04:13:33.647Z,6.49
2022-09-01T04:13:53.694Z,6.46
2022-09-01T04:14:13.832Z,6.49
2022-09-01T04:14:33.824Z,6.48
2022-09-01T04:14:53.876Z,6.5
2022-09-01T04:15:13.979Z,6.48
2022-09-01T04:15:34.012Z,6.49
2022-09-01T04:15:54.075Z,6.45
2022-09-01T04:16:14.165Z,6.48
2022-09-01T04:16:34.248Z,6.43
2022-09-01T04:16:54.340Z,6.45
2022-09-01T04:17:14.291Z,6.45
2022-09-01T04:17:34.351Z,6.43
2022-09-01T04:17:54.424Z,6.43
2022-09-01T04:18:14.470Z,6.39
2022-09-01T04:18:34.532Z,6.42
2022-09-01T04:18:54.601Z,6.39
2022-09-01T04:19:14.739Z,6.4
2022-09-01T04:19:34.736Z,6.36
2022-09-01T04:19:54.781Z,6.35
2022-09-01T04:20:14.869Z,6.35
2022-09-01T04:20:34.892Z,6.36
2022-09-01T04:20:54.958Z,6.39
2022-09-01T04:21:15.012Z,6.38
2022-09-01T04:21:35.073Z,6.38
2022-09-01T04:21:55.135Z,6.36
2022-09-01T04:22:15.204Z,6.39
2022-09-01T04:22:35.252Z,6.4
2022-09-01T04:22:55.314Z,6.39
2022-09-01T04:23:15.385Z,6.39
2022-09-01T04:23:35.444Z,6.33
2022-09-01T04:23:55.529Z,6.38
2022-09-01T04:24:15.626Z,6.38
2022-09-01T04:24:35.613Z,6.33
2022-09-01T04:24:55.728Z,6.38
2022-09-01T04:25:15.737Z,6.39
2022-09-01T04:25:35.795Z,6.36
2022-09-01T04:25:55.884Z,6.39
2022-09-01T04:26:15.923Z,6.39
2022-09-01T04:26:35.995Z,6.4
2022-09-01T04:26:56.036Z,6.38
2022-09-01T04:27:16.143Z,6.33
2022-09-01T04:27:36.170Z,6.38
2022-09-01T04:27:56.215Z,6.36
2022-09-01T04:28:16.305Z,6.36